Time;durP1;ratioP1;P1;durP2;ratioP2;P2;SDS_P1;SDS_P2;PMS_P1;PMS_P2;Temp;Humidity;BMP_temperature;BMP_pressure;BME280_temperature;BME280_humidity;BME280_pressure;Samples;Min_cycle;Max_cycle;Signal;HPM_P1;HPM_P2
2021/01/15 00:01:38;;;;;;;;;;;21.20;24.30;;;;;;491708;240;1042;-72
2021/01/15 00:03:39;;;;;;;;;;;21.20;24.30;;;;;;491647;240;971;-72
2021/01/15 00:05:41;;;;;;;;;;;21.10;24.30;;;;;;491685;240;1011;-71
2021/01/15 00:07:42;;;;;;;;;;;21.20;24.30;;;;;;491671;240;1048;-71
2021/01/15 00:09:43;;;;;;;;;;;21.20;24.30;;;;;;491683;238;1275;-72
2021/01/15 00:11:44;;;;;;;;;;;21.20;24.30;;;;;;491691;240;1071;-71
2021/01/15 00:13:46;;;;;;;;;;;21.20;24.20;;;;;;491724;240;1371;-71
2021/01/15 00:15:47;;;;;;;;;;;21.30;24.20;;;;;;491677;240;955;-71
2021/01/15 00:17:49;;;;;;;;;;;21.30;24.20;;;;;;491646;240;2187;-71
2021/01/15 00:19:50;;;;;;;;;;;21.30;24.10;;;;;;491681;240;965;-72
2021/01/15 00:21:52;;;;;;;;;;;21.30;24.10;;;;;;491671;240;1365;-71
2021/01/15 00:23:53;;;;;;;;;;;21.30;24.10;;;;;;491668;240;1218;-71
2021/01/15 00:25:54;;;;;;;;;;;21.30;24.10;;;;;;491676;240;984;-72
2021/01/15 00:27:55;;;;;;;;;;;21.30;24.10;;;;;;491722;240;965;-71
2021/01/15 00:29:57;;;;;;;;;;;21.40;24.10;;;;;;491695;240;1036;-72
2021/01/15 00:31:58;;;;;;;;;;;21.30;24.00;;;;;;491690;240;1044;-71
2021/01/15 00:33:59;;;;;;;;;;;21.40;24.00;;;;;;491676;240;937;-72
2021/01/15 00:36:00;;;;;;;;;;;21.40;23.90;;;;;;491688;240;964;-72
2021/01/15 00:38:02;;;;;;;;;;;21.40;23.90;;;;;;491690;240;2196;-71
2021/01/15 00:40:03;;;;;;;;;;;21.40;23.90;;;;;;491636;240;1149;-71
2021/01/15 00:42:04;;;;;;;;;;;21.40;23.90;;;;;;491593;240;1053;-72
2021/01/15 00:44:06;;;;;;;;;;;21.40;23.80;;;;;;491538;240;1207;-71
2021/01/15 00:46:09;;;;;;;;;;;21.40;23.80;;;;;;491620;240;1094;-71
2021/01/15 00:48:10;;;;;;;;;;;21.50;23.80;;;;;;491679;240;1061;-72
2021/01/15 00:50:11;;;;;;;;;;;21.50;23.80;;;;;;491660;240;1383;-72
2021/01/15 00:52:13;;;;;;;;;;;21.50;23.80;;;;;;491684;240;1159;-72
2021/01/15 00:54:14;;;;;;;;;;;21.50;23.80;;;;;;491696;240;926;-71
2021/01/15 00:56:15;;;;;;;;;;;21.50;23.80;;;;;;491587;240;1164;-72
2021/01/15 00:58:16;;;;;;;;;;;21.50;23.80;;;;;;491640;240;2183;-72
2021/01/15 01:00:18;;;;;;;;;;;21.50;23.70;;;;;;491708;240;1289;-72
2021/01/15 01:02:19;;;;;;;;;;;21.50;23.70;;;;;;491607;240;984;-71
2021/01/15 01:04:20;;;;;;;;;;;21.50;23.70;;;;;;491660;240;927;-71
2021/01/15 01:06:22;;;;;;;;;;;21.50;23.70;;;;;;491486;240;1265;-71
2021/01/15 01:08:23;;;;;;;;;;;21.50;23.70;;;;;;491646;240;966;-72
2021/01/15 01:10:24;;;;;;;;;;;21.50;23.70;;;;;;491668;240;1146;-71
2021/01/15 01:12:25;;;;;;;;;;;21.50;23.70;;;;;;491652;240;949;-72
2021/01/15 01:14:27;;;;;;;;;;;21.50;23.60;;;;;;491680;240;936;-71
2021/01/15 01:16:28;;;;;;;;;;;21.50;23.60;;;;;;491630;240;1041;-71
2021/01/15 01:18:29;;;;;;;;;;;21.50;23.60;;;;;;491598;240;2179;-72
2021/01/15 01:20:31;;;;;;;;;;;21.50;23.60;;;;;;491618;240;945;-71
2021/01/15 01:22:32;;;;;;;;;;;21.50;23.60;;;;;;491642;240;1016;-72
2021/01/15 01:24:33;;;;;;;;;;;21.50;23.60;;;;;;491693;240;954;-72
2021/01/15 01:26:35;;;;;;;;;;;21.60;23.60;;;;;;491660;240;940;-71
2021/01/15 01:28:36;;;;;;;;;;;21.60;23.60;;;;;;491648;240;962;-72
2021/01/15 01:30:37;;;;;;;;;;;21.50;23.60;;;;;;491632;240;962;-72
2021/01/15 01:32:38;;;;;;;;;;;21.60;23.60;;;;;;491731;240;1058;-72
2021/01/15 01:34:40;;;;;;;;;;;21.60;23.60;;;;;;491644;240;1300;-72
2021/01/15 01:36:41;;;;;;;;;;;21.60;23.60;;;;;;491654;240;1012;-71
2021/01/15 01:38:42;;;;;;;;;;;21.50;23.60;;;;;;491600;240;2171;-71
2021/01/15 01:40:44;;;;;;;;;;;21.50;23.50;;;;;;491612;240;1294;-71
2021/01/15 01:42:45;;;;;;;;;;;21.60;23.60;;;;;;491621;240;943;-71
2021/01/15 01:44:46;;;;;;;;;;;21.60;23.50;;;;;;491654;240;939;-72
2021/01/15 01:46:47;;;;;;;;;;;21.50;23.50;;;;;;491650;240;992;-72
2021/01/15 01:48:49;;;;;;;;;;;21.60;23.50;;;;;;491694;240;957;-71
2021/01/15 01:50:50;;;;;;;;;;;21.50;23.40;;;;;;491629;240;1134;-71
2021/01/15 01:52:51;;;;;;;;;;;21.60;23.40;;;;;;491588;240;1061;-71
2021/01/15 01:54:53;;;;;;;;;;;21.50;23.50;;;;;;491607;240;1090;-71
2021/01/15 01:56:54;;;;;;;;;;;21.50;23.40;;;;;;491643;240;1024;-71
2021/01/15 01:58:55;;;;;;;;;;;21.60;23.40;;;;;;491656;240;2204;-71
2021/01/15 02:00:56;;;;;;;;;;;21.60;23.40;;;;;;491613;240;981;-71
2021/01/15 02:02:58;;;;;;;;;;;21.60;23.40;;;;;;491669;240;951;-71
2021/01/15 02:04:59;;;;;;;;;;;21.60;23.40;;;;;;491689;240;1089;-72
2021/01/15 02:07:00;;;;;;;;;;;21.60;23.40;;;;;;491566;240;1029;-72
2021/01/15 02:09:01;;;;;;;;;;;21.60;23.40;;;;;;491554;240;1279;-72
2021/01/15 02:11:03;;;;;;;;;;;21.60;23.40;;;;;;491607;240;1115;-71
2021/01/15 02:13:04;;;;;;;;;;;21.70;23.40;;;;;;491532;240;1312;-72
2021/01/15 02:15:05;;;;;;;;;;;21.60;23.40;;;;;;491667;240;1060;-71
2021/01/15 02:17:07;;;;;;;;;;;21.60;23.40;;;;;;491603;240;1116;-71
2021/01/15 02:19:08;;;;;;;;;;;21.60;23.30;;;;;;491646;240;2176;-71
2021/01/15 02:21:10;;;;;;;;;;;21.60;23.30;;;;;;491627;240;1162;-71
2021/01/15 02:23:11;;;;;;;;;;;21.60;23.30;;;;;;491618;240;1044;-72
2021/01/15 02:25:12;;;;;;;;;;;21.70;23.30;;;;;;491645;240;1342;-71
2021/01/15 02:27:13;;;;;;;;;;;21.70;23.20;;;;;;491630;240;1145;-71
2021/01/15 02:29:15;;;;;;;;;;;21.70;23.20;;;;;;491652;240;1117;-72
2021/01/15 02:31:16;;;;;;;;;;;21.70;23.20;;;;;;491609;240;1129;-72
2021/01/15 02:33:17;;;;;;;;;;;21.70;23.20;;;;;;491557;240;1162;-71
2021/01/15 02:35:19;;;;;;;;;;;21.70;23.20;;;;;;491610;240;1162;-72
2021/01/15 02:37:20;;;;;;;;;;;21.70;23.20;;;;;;491581;240;962;-71
2021/01/15 02:39:21;;;;;;;;;;;21.70;23.20;;;;;;491650;240;2176;-72
2021/01/15 02:41:22;;;;;;;;;;;21.70;23.10;;;;;;491587;240;1143;-71
2021/01/15 02:43:24;;;;;;;;;;;21.70;23.10;;;;;;491592;240;964;-72
2021/01/15 02:45:25;;;;;;;;;;;21.70;23.10;;;;;;491624;240;969;-71
2021/01/15 02:47:26;;;;;;;;;;;21.70;23.10;;;;;;491639;240;963;-71
2021/01/15 02:49:28;;;;;;;;;;;21.70;23.00;;;;;;491672;240;992;-72
2021/01/15 02:51:29;;;;;;;;;;;21.80;23.10;;;;;;491619;240;1111;-72
2021/01/15 02:53:30;;;;;;;;;;;21.70;23.00;;;;;;491666;240;921;-71
2021/01/15 02:55:31;;;;;;;;;;;21.70;23.00;;;;;;491664;240;937;-72
2021/01/15 02:57:33;;;;;;;;;;;21.80;23.00;;;;;;491577;240;1207;-71
2021/01/15 02:59:34;;;;;;;;;;;21.70;23.00;;;;;;491591;240;910;-71
2021/01/15 03:01:35;;;;;;;;;;;21.70;22.90;;;;;;491524;240;1363;-72
2021/01/15 03:03:36;;;;;;;;;;;21.70;23.00;;;;;;491625;240;933;-71
2021/01/15 03:05:38;;;;;;;;;;;21.70;23.00;;;;;;491549;240;916;-71
2021/01/15 03:07:39;;;;;;;;;;;21.70;23.00;;;;;;491626;240;1098;-72
2021/01/15 03:09:41;;;;;;;;;;;21.80;23.00;;;;;;491598;240;929;-72
2021/01/15 03:11:42;;;;;;;;;;;21.70;23.00;;;;;;491608;240;1317;-71
2021/01/15 03:13:43;;;;;;;;;;;21.80;22.90;;;;;;491591;240;954;-71
2021/01/15 03:15:44;;;;;;;;;;;21.80;22.90;;;;;;491597;240;1092;-72
2021/01/15 03:17:46;;;;;;;;;;;21.80;22.90;;;;;;491579;240;2140;-71
2021/01/15 03:19:47;;;;;;;;;;;21.80;23.00;;;;;;491659;240;1083;-71
2021/01/15 03:21:50;;;;;;;;;;;21.80;22.90;;;;;;491679;240;1154;-71
2021/01/15 03:23:50;;;;;;;;;;;21.80;22.90;;;;;;491560;241;1420;-71
2021/01/15 03:25:51;;;;;;;;;;;21.80;22.90;;;;;;491636;240;976;-72
2021/01/15 03:27:52;;;;;;;;;;;21.80;22.90;;;;;;491616;240;1195;-72
2021/01/15 03:29:54;;;;;;;;;;;21.80;22.90;;;;;;491644;240;959;-72
2021/01/15 03:31:55;;;;;;;;;;;21.80;22.90;;;;;;491629;240;946;-72
2021/01/15 03:33:56;;;;;;;;;;;21.70;22.80;;;;;;491693;240;945;-72
2021/01/15 03:35:57;;;;;;;;;;;21.80;22.80;;;;;;491671;240;926;-71
2021/01/15 03:37:59;;;;;;;;;;;21.90;22.80;;;;;;491657;240;2195;-72
2021/01/15 03:40:00;;;;;;;;;;;21.90;22.70;;;;;;491627;240;1014;-72
2021/01/15 03:42:01;;;;;;;;;;;22.00;22.70;;;;;;491586;240;1109;-72
2021/01/15 03:44:03;;;;;;;;;;;21.90;22.70;;;;;;491659;240;929;-71
2021/01/15 03:46:04;;;;;;;;;;;21.90;22.70;;;;;;491635;240;1046;-72
2021/01/15 03:48:05;;;;;;;;;;;21.90;22.70;;;;;;491625;240;1080;-72
2021/01/15 03:50:07;;;;;;;;;;;22.00;22.70;;;;;;491631;240;980;-71
2021/01/15 03:52:08;;;;;;;;;;;21.90;22.60;;;;;;491665;240;1079;-71
2021/01/15 03:54:09;;;;;;;;;;;21.90;22.70;;;;;;491621;240;941;-71
2021/01/15 03:56:10;;;;;;;;;;;22.00;22.70;;;;;;491556;240;989;-72
2021/01/15 03:58:12;;;;;;;;;;;22.00;22.70;;;;;;491630;240;2191;-72
2021/01/15 04:00:13;;;;;;;;;;;22.00;22.60;;;;;;491624;240;1091;-71
2021/01/15 04:02:14;;;;;;;;;;;22.00;22.60;;;;;;491644;240;1049;-71
2021/01/15 04:04:16;;;;;;;;;;;22.00;22.60;;;;;;491810;240;1020;-71
2021/01/15 04:06:17;;;;;;;;;;;22.00;22.60;;;;;;491669;240;955;-72
2021/01/15 04:08:18;;;;;;;;;;;22.00;22.60;;;;;;491650;240;1029;-72
2021/01/15 04:10:19;;;;;;;;;;;22.00;22.60;;;;;;491640;240;947;-71
2021/01/15 04:12:21;;;;;;;;;;;22.00;22.60;;;;;;491665;240;1198;-71
2021/01/15 04:14:22;;;;;;;;;;;22.00;22.60;;;;;;491662;240;1343;-72
2021/01/15 04:16:23;;;;;;;;;;;22.00;22.60;;;;;;491635;240;941;-72
2021/01/15 04:18:24;;;;;;;;;;;22.00;22.60;;;;;;491638;240;2196;-72
2021/01/15 04:20:26;;;;;;;;;;;22.00;22.60;;;;;;491635;240;983;-71
2021/01/15 04:22:27;;;;;;;;;;;22.10;22.50;;;;;;491648;240;928;-72
2021/01/15 04:24:28;;;;;;;;;;;22.00;22.50;;;;;;491756;240;915;-72
2021/01/15 04:26:30;;;;;;;;;;;22.00;22.50;;;;;;491624;240;1080;-71
2021/01/15 04:28:31;;;;;;;;;;;22.00;22.50;;;;;;491625;240;1173;-71
2021/01/15 04:30:32;;;;;;;;;;;22.00;22.50;;;;;;491634;240;1064;-72
2021/01/15 04:32:33;;;;;;;;;;;22.00;22.50;;;;;;491596;240;1022;-72
2021/01/15 04:34:35;;;;;;;;;;;22.00;22.50;;;;;;491666;240;968;-71
2021/01/15 04:36:36;;;;;;;;;;;22.10;22.50;;;;;;491582;240;1199;-71
2021/01/15 04:38:37;;;;;;;;;;;22.10;22.50;;;;;;491622;240;2145;-72
2021/01/15 04:40:39;;;;;;;;;;;22.00;22.40;;;;;;491628;240;974;-72
2021/01/15 04:42:41;;;;;;;;;;;22.10;22.40;;;;;;491594;240;1132;-72
2021/01/15 04:44:41;;;;;;;;;;;22.10;22.40;;;;;;491601;240;1502;-72
2021/01/15 04:46:42;;;;;;;;;;;22.10;22.40;;;;;;491603;240;1212;-71
2021/01/15 04:48:44;;;;;;;;;;;22.00;22.40;;;;;;491692;240;998;-72
2021/01/15 04:50:45;;;;;;;;;;;22.00;22.40;;;;;;491670;240;961;-71
2021/01/15 04:52:46;;;;;;;;;;;22.00;22.40;;;;;;491640;240;1080;-71
2021/01/15 04:54:48;;;;;;;;;;;22.00;22.40;;;;;;491630;240;970;-72
2021/01/15 04:56:49;;;;;;;;;;;22.00;22.40;;;;;;491583;240;1025;-72
2021/01/15 04:58:50;;;;;;;;;;;22.10;22.40;;;;;;491686;240;2192;-71
2021/01/15 05:00:52;;;;;;;;;;;22.00;22.30;;;;;;491577;240;1094;-72
2021/01/15 05:02:53;;;;;;;;;;;22.00;22.40;;;;;;491584;240;951;-71
2021/01/15 05:04:54;;;;;;;;;;;22.10;22.30;;;;;;491527;240;1038;-71
2021/01/15 05:06:55;;;;;;;;;;;22.10;22.30;;;;;;491523;240;1114;-72
2021/01/15 05:08:57;;;;;;;;;;;22.10;22.30;;;;;;491640;240;930;-72
2021/01/15 05:10:58;;;;;;;;;;;22.00;22.30;;;;;;491594;240;962;-72
2021/01/15 05:12:59;;;;;;;;;;;22.10;22.30;;;;;;491591;240;1130;-71
2021/01/15 05:15:00;;;;;;;;;;;22.10;22.30;;;;;;491648;240;976;-72
2021/01/15 05:17:02;;;;;;;;;;;22.10;22.20;;;;;;491637;240;1091;-71
2021/01/15 05:19:04;;;;;;;;;;;22.10;22.20;;;;;;491619;240;2176;-72
2021/01/15 05:21:06;;;;;;;;;;;22.10;22.20;;;;;;491490;240;1104;-72
2021/01/15 05:23:07;;;;;;;;;;;22.10;22.30;;;;;;491514;240;1071;-72
2021/01/15 05:25:08;;;;;;;;;;;22.10;22.20;;;;;;491603;240;1116;-72
2021/01/15 05:29:32;;;;;;;;;;;22.10;22.20;;;;;;491612;241;1248;-72
2021/01/15 05:31:33;;;;;;;;;;;22.10;22.20;;;;;;491554;240;986;-72
2021/01/15 05:33:35;;;;;;;;;;;22.10;22.20;;;;;;491593;240;1006;-72
2021/01/15 05:35:36;;;;;;;;;;;22.10;22.20;;;;;;491498;241;1490;-71
2021/01/15 05:37:37;;;;;;;;;;;22.10;22.10;;;;;;491520;240;967;-71
2021/01/15 05:39:38;;;;;;;;;;;22.20;22.20;;;;;;491557;240;2149;-71
2021/01/15 05:41:39;;;;;;;;;;;22.10;22.10;;;;;;491527;240;960;-71
2021/01/15 05:43:41;;;;;;;;;;;22.10;22.10;;;;;;491536;240;1384;-71
2021/01/15 05:45:42;;;;;;;;;;;22.20;22.10;;;;;;491569;240;950;-73
2021/01/15 05:47:43;;;;;;;;;;;22.10;22.10;;;;;;491518;240;1004;-71
2021/01/15 05:49:45;;;;;;;;;;;22.10;22.10;;;;;;491528;240;1015;-72
2021/01/15 05:51:46;;;;;;;;;;;22.20;22.10;;;;;;491452;240;966;-72
2021/01/15 05:53:47;;;;;;;;;;;22.10;22.10;;;;;;491487;240;967;-71
2021/01/15 05:55:48;;;;;;;;;;;22.20;22.10;;;;;;491536;240;911;-71
2021/01/15 05:57:50;;;;;;;;;;;22.10;22.10;;;;;;491542;239;1234;-71
2021/01/15 05:59:52;;;;;;;;;;;22.10;22.10;;;;;;491508;240;2172;-71
2021/01/15 06:01:53;;;;;;;;;;;22.10;22.10;;;;;;491498;240;1631;-71
2021/01/15 06:03:54;;;;;;;;;;;22.10;22.10;;;;;;491439;242;1551;-71
2021/01/15 06:05:55;;;;;;;;;;;22.10;22.10;;;;;;491420;240;1029;-71
2021/01/15 06:07:56;;;;;;;;;;;22.20;22.10;;;;;;491437;240;1018;-71
2021/01/15 06:09:57;;;;;;;;;;;22.10;22.00;;;;;;491421;240;1202;-71
2021/01/15 06:11:59;;;;;;;;;;;22.10;22.10;;;;;;491284;240;963;-71
2021/01/15 06:14:00;;;;;;;;;;;22.10;22.10;;;;;;491245;240;1167;-71
2021/01/15 06:16:01;;;;;;;;;;;22.10;22.00;;;;;;491388;240;1060;-71
2021/01/15 06:18:03;;;;;;;;;;;22.10;22.00;;;;;;491391;240;1042;-71
2021/01/15 06:20:04;;;;;;;;;;;22.10;22.00;;;;;;491373;240;2188;-71
2021/01/15 06:22:05;;;;;;;;;;;22.00;22.00;;;;;;491350;240;1065;-72
2021/01/15 06:24:07;;;;;;;;;;;22.10;22.00;;;;;;491356;240;1113;-71
2021/01/15 06:26:08;;;;;;;;;;;22.10;22.00;;;;;;491194;240;1133;-71
2021/01/15 06:28:09;;;;;;;;;;;22.10;22.00;;;;;;491138;240;1183;-71
2021/01/15 06:30:12;;;;;;;;;;;22.10;22.00;;;;;;491269;240;970;-71
2021/01/15 06:32:12;;;;;;;;;;;22.10;22.00;;;;;;491292;241;1496;-72
2021/01/15 06:34:13;;;;;;;;;;;22.00;22.00;;;;;;491418;240;1156;-72
2021/01/15 06:36:14;;;;;;;;;;;22.00;22.00;;;;;;491100;240;1225;-67
2021/01/15 06:38:15;;;;;;;;;;;22.10;22.00;;;;;;491115;240;1020;-71
2021/01/15 06:40:17;;;;;;;;;;;22.10;22.00;;;;;;491307;240;2176;-71
2021/01/15 06:42:18;;;;;;;;;;;22.10;22.00;;;;;;491295;240;1039;-71
2021/01/15 06:44:19;;;;;;;;;;;22.10;22.00;;;;;;491260;240;1139;-72
2021/01/15 06:46:21;;;;;;;;;;;22.10;22.00;;;;;;491282;240;1221;-71
2021/01/15 06:48:22;;;;;;;;;;;22.10;22.00;;;;;;491218;240;1479;-72
2021/01/15 06:50:23;;;;;;;;;;;22.10;22.00;;;;;;491345;240;1088;-72
2021/01/15 06:52:24;;;;;;;;;;;22.10;22.10;;;;;;491207;240;1093;-72
2021/01/15 06:54:26;;;;;;;;;;;22.10;22.00;;;;;;491244;240;1000;-72
2021/01/15 06:56:27;;;;;;;;;;;22.10;22.10;;;;;;491285;240;1150;-72
2021/01/15 06:58:28;;;;;;;;;;;22.10;22.10;;;;;;491146;240;1135;-71
2021/01/15 07:00:30;;;;;;;;;;;22.10;22.20;;;;;;491076;240;2152;-72
2021/01/15 07:02:31;;;;;;;;;;;22.10;22.10;;;;;;491108;240;1124;-71
2021/01/15 07:04:32;;;;;;;;;;;22.20;22.20;;;;;;491135;240;1083;-71
2021/01/15 07:06:33;;;;;;;;;;;22.20;22.20;;;;;;491221;240;1049;-71
2021/01/15 07:08:35;;;;;;;;;;;22.20;22.20;;;;;;491256;240;1184;-72
2021/01/15 07:10:36;;;;;;;;;;;22.20;22.20;;;;;;491163;240;1088;-71
2021/01/15 07:12:37;;;;;;;;;;;22.10;22.30;;;;;;491096;240;1407;-71
2021/01/15 07:14:38;;;;;;;;;;;22.10;22.30;;;;;;491066;240;1178;-71
2021/01/15 07:16:40;;;;;;;;;;;22.00;22.30;;;;;;491093;240;966;-71
2021/01/15 07:18:41;;;;;;;;;;;22.10;22.40;;;;;;490998;240;1105;-71
2021/01/15 07:20:42;;;;;;;;;;;22.10;22.30;;;;;;490945;240;2191;-72
2021/01/15 07:22:44;;;;;;;;;;;22.10;22.30;;;;;;491139;240;1051;-71
2021/01/15 07:24:45;;;;;;;;;;;22.10;22.30;;;;;;491099;240;1028;-72
2021/01/15 07:26:46;;;;;;;;;;;22.20;22.30;;;;;;491162;240;1156;-72
2021/01/15 07:28:47;;;;;;;;;;;22.20;22.30;;;;;;491140;240;1291;-71
2021/01/15 07:30:49;;;;;;;;;;;22.10;22.30;;;;;;491137;240;959;-71
2021/01/15 07:32:50;;;;;;;;;;;22.10;22.30;;;;;;491130;240;998;-72
2021/01/15 07:34:52;;;;;;;;;;;22.20;22.40;;;;;;491090;240;1078;-72
2021/01/15 07:36:53;;;;;;;;;;;22.20;22.40;;;;;;490991;240;1062;-71
2021/01/15 07:38:54;;;;;;;;;;;22.30;22.50;;;;;;491047;240;955;-72
2021/01/15 07:40:55;;;;;;;;;;;22.20;22.40;;;;;;491089;240;2181;-72
2021/01/15 07:42:57;;;;;;;;;;;22.20;22.40;;;;;;491279;240;1044;-71
2021/01/15 07:44:58;;;;;;;;;;;22.20;22.50;;;;;;491118;240;1198;-74
2021/01/15 07:47:00;;;;;;;;;;;22.10;22.50;;;;;;491093;240;1095;-73
2021/01/15 07:49:01;;;;;;;;;;;22.10;22.50;;;;;;491057;240;1089;-73
2021/01/15 07:51:02;;;;;;;;;;;22.10;22.60;;;;;;491227;240;972;-74
2021/01/15 07:53:04;;;;;;;;;;;22.10;22.60;;;;;;491049;240;1023;-73
2021/01/15 07:55:05;;;;;;;;;;;22.10;22.60;;;;;;490936;240;1107;-73
2021/01/15 07:57:06;;;;;;;;;;;22.00;22.60;;;;;;491116;240;978;-71
2021/01/15 07:59:07;;;;;;;;;;;22.10;22.60;;;;;;491123;240;1295;-74
2021/01/15 08:01:09;;;;;;;;;;;22.10;22.50;;;;;;491131;240;2184;-72
2021/01/15 08:03:10;;;;;;;;;;;22.10;22.50;;;;;;491231;240;1041;-72
2021/01/15 08:05:11;;;;;;;;;;;22.10;22.50;;;;;;491126;240;1011;-73
2021/01/15 08:07:13;;;;;;;;;;;22.20;22.50;;;;;;491071;240;1047;-72
2021/01/15 08:09:14;;;;;;;;;;;22.20;22.50;;;;;;491085;240;985;-72
2021/01/15 08:11:15;;;;;;;;;;;22.20;22.50;;;;;;491016;240;981;-72
2021/01/15 08:13:16;;;;;;;;;;;22.20;22.50;;;;;;490823;240;1036;-71
2021/01/15 08:15:18;;;;;;;;;;;22.20;22.50;;;;;;491016;240;1184;-71
2021/01/15 08:17:19;;;;;;;;;;;22.20;22.50;;;;;;491152;240;1034;-71
2021/01/15 08:19:21;;;;;;;;;;;22.20;22.50;;;;;;491073;240;976;-71
2021/01/15 08:21:22;;;;;;;;;;;22.20;22.50;;;;;;491023;240;996;-71
2021/01/15 08:23:23;;;;;;;;;;;22.10;22.50;;;;;;490931;240;1051;-72
2021/01/15 08:25:25;;;;;;;;;;;22.20;22.50;;;;;;491023;240;975;-72
2021/01/15 08:27:26;;;;;;;;;;;22.20;22.50;;;;;;491116;240;948;-72
2021/01/15 08:29:28;;;;;;;;;;;22.20;22.50;;;;;;491171;240;1087;-72
2021/01/15 08:31:28;;;;;;;;;;;22.20;22.50;;;;;;491296;240;1331;-72
2021/01/15 08:33:30;;;;;;;;;;;22.20;22.50;;;;;;491193;240;968;-72
2021/01/15 08:35:31;;;;;;;;;;;22.10;22.50;;;;;;491101;240;1190;-71
2021/01/15 08:37:32;;;;;;;;;;;22.20;22.50;;;;;;491183;240;968;-71
2021/01/15 08:39:34;;;;;;;;;;;22.20;22.50;;;;;;491151;240;2183;-71
2021/01/15 08:41:35;;;;;;;;;;;22.20;22.50;;;;;;490990;240;1108;-72
2021/01/15 08:43:36;;;;;;;;;;;22.20;22.50;;;;;;490977;240;1265;-71
2021/01/15 08:45:37;;;;;;;;;;;22.20;22.50;;;;;;490987;240;1251;-72
2021/01/15 08:47:39;;;;;;;;;;;22.20;22.50;;;;;;490946;240;1092;-71
2021/01/15 08:49:40;;;;;;;;;;;22.20;22.50;;;;;;490956;240;999;-72
2021/01/15 08:51:41;;;;;;;;;;;22.20;22.50;;;;;;491103;240;1123;-71
2021/01/15 08:54:04;;;;;;;;;;;22.20;22.60;;;;;;491124;240;1281;-71
2021/01/15 08:56:05;;;;;;;;;;;22.20;22.50;;;;;;491105;240;1060;-72
2021/01/15 08:58:07;;;;;;;;;;;22.20;22.60;;;;;;491106;240;1044;-72
2021/01/15 09:00:08;;;;;;;;;;;22.10;22.50;;;;;;491122;240;2176;-72
2021/01/15 09:02:09;;;;;;;;;;;22.10;22.60;;;;;;491073;240;1388;-72
2021/01/15 09:04:10;;;;;;;;;;;22.20;22.60;;;;;;491139;240;1097;-72
2021/01/15 09:06:12;;;;;;;;;;;22.10;22.50;;;;;;491050;240;1119;-71
2021/01/15 09:08:13;;;;;;;;;;;22.20;22.60;;;;;;491111;240;965;-71
2021/01/15 09:10:14;;;;;;;;;;;22.10;22.60;;;;;;491196;240;1039;-71
2021/01/15 09:12:16;;;;;;;;;;;22.10;22.60;;;;;;491285;240;1092;-71
2021/01/15 09:14:17;;;;;;;;;;;22.10;22.60;;;;;;491198;240;981;-71
2021/01/15 09:16:18;;;;;;;;;;;22.10;22.60;;;;;;491078;240;1207;-71
2021/01/15 09:18:19;;;;;;;;;;;22.10;22.60;;;;;;490971;240;967;-72
2021/01/15 09:20:21;;;;;;;;;;;22.10;22.60;;;;;;490910;240;2179;-71
2021/01/15 09:22:26;;;;;;;;;;;22.10;22.60;;;;;;491026;240;1059;-72
2021/01/15 09:24:23;;;;;;;;;;;22.00;22.60;;;;;;490960;242;1422;-71
2021/01/15 09:26:24;;;;;;;;;;;22.10;22.60;;;;;;491172;240;1166;-71
2021/01/15 09:28:26;;;;;;;;;;;22.10;22.60;;;;;;491077;240;978;-71
2021/01/15 09:30:27;;;;;;;;;;;22.10;22.60;;;;;;491101;240;1124;-71
2021/01/15 09:32:28;;;;;;;;;;;22.10;22.60;;;;;;490923;240;1016;-71
2021/01/15 09:34:30;;;;;;;;;;;22.10;22.60;;;;;;491036;240;1217;-71
2021/01/15 09:36:31;;;;;;;;;;;22.10;22.60;;;;;;491053;240;988;-71
2021/01/15 09:38:32;;;;;;;;;;;22.10;22.60;;;;;;491065;240;955;-71
2021/01/15 09:40:33;;;;;;;;;;;22.10;22.60;;;;;;491155;240;2229;-72
2021/01/15 09:42:35;;;;;;;;;;;22.10;22.60;;;;;;490995;240;1023;-71
2021/01/15 09:44:36;;;;;;;;;;;22.10;22.60;;;;;;491060;240;1028;-71
2021/01/15 09:46:37;;;;;;;;;;;22.00;22.60;;;;;;491133;240;1278;-71
2021/01/15 09:48:39;;;;;;;;;;;22.10;22.60;;;;;;491136;240;973;-71
2021/01/15 09:50:40;;;;;;;;;;;22.10;22.60;;;;;;491067;240;1246;-72
2021/01/15 09:52:41;;;;;;;;;;;22.10;22.60;;;;;;491041;240;1239;-72
2021/01/15 09:54:42;;;;;;;;;;;22.10;22.60;;;;;;491013;240;1062;-72
2021/01/15 09:56:44;;;;;;;;;;;22.10;22.60;;;;;;490863;240;1119;-72
2021/01/15 09:58:45;;;;;;;;;;;22.10;22.60;;;;;;490933;240;1019;-71
2021/01/15 10:00:46;;;;;;;;;;;22.10;22.60;;;;;;490884;242;2148;-72
2021/01/15 10:02:47;;;;;;;;;;;22.10;22.60;;;;;;490992;240;953;-71
2021/01/15 10:04:49;;;;;;;;;;;22.10;22.60;;;;;;490880;240;1176;-71
2021/01/15 10:06:50;;;;;;;;;;;22.10;22.60;;;;;;490809;240;1259;-71
2021/01/15 10:08:51;;;;;;;;;;;22.10;22.60;;;;;;491054;240;1000;-71
2021/01/15 10:10:52;;;;;;;;;;;22.10;22.60;;;;;;491049;240;980;-71
2021/01/15 10:12:54;;;;;;;;;;;22.10;22.60;;;;;;491040;240;998;-71
2021/01/15 10:14:55;;;;;;;;;;;22.10;22.60;;;;;;491043;240;1039;-71
2021/01/15 10:16:56;;;;;;;;;;;22.10;22.60;;;;;;491087;240;1254;-71
2021/01/15 10:18:58;;;;;;;;;;;22.10;22.60;;;;;;491045;240;1089;-71
2021/01/15 10:20:59;;;;;;;;;;;22.10;22.60;;;;;;490957;240;2187;-71
2021/01/15 10:23:00;;;;;;;;;;;22.10;22.70;;;;;;491061;240;959;-72
2021/01/15 10:25:01;;;;;;;;;;;22.10;22.60;;;;;;490951;240;1009;-71
2021/01/15 10:27:03;;;;;;;;;;;22.10;22.60;;;;;;491205;240;1056;-71
2021/01/15 10:29:05;;;;;;;;;;;22.10;22.60;;;;;;490989;240;1058;-72
2021/01/15 10:31:05;;;;;;;;;;;22.10;22.70;;;;;;491081;241;1422;-72
2021/01/15 10:33:06;;;;;;;;;;;22.20;22.60;;;;;;490936;240;1060;-71
2021/01/15 10:35:08;;;;;;;;;;;22.10;22.60;;;;;;491060;240;1006;-72
2021/01/15 10:37:09;;;;;;;;;;;22.10;22.70;;;;;;491165;240;1130;-72
2021/01/15 10:39:10;;;;;;;;;;;22.10;22.60;;;;;;491198;240;1028;-71
2021/01/15 10:41:12;;;;;;;;;;;22.10;22.60;;;;;;491193;240;2236;-71
2021/01/15 10:43:13;;;;;;;;;;;22.10;22.70;;;;;;491099;240;998;-71
2021/01/15 10:45:14;;;;;;;;;;;22.10;22.60;;;;;;491024;240;992;-71
2021/01/15 10:47:16;;;;;;;;;;;22.20;22.60;;;;;;491063;240;1186;-71
2021/01/15 10:49:17;;;;;;;;;;;22.10;22.60;;;;;;491141;240;986;-71
2021/01/15 10:51:18;;;;;;;;;;;22.20;22.60;;;;;;491125;240;1240;-71
2021/01/15 10:53:20;;;;;;;;;;;22.10;22.60;;;;;;491094;240;1077;-71
2021/01/15 10:55:21;;;;;;;;;;;22.10;22.70;;;;;;491056;240;1047;-71
2021/01/15 10:57:22;;;;;;;;;;;22.10;22.60;;;;;;491030;240;1132;-71
2021/01/15 10:59:23;;;;;;;;;;;22.10;22.70;;;;;;490970;240;994;-71
2021/01/15 11:01:25;;;;;;;;;;;22.10;22.60;;;;;;491164;239;2159;-71
2021/01/15 11:03:26;;;;;;;;;;;22.10;22.60;;;;;;491045;240;1117;-71
2021/01/15 11:05:27;;;;;;;;;;;22.10;22.70;;;;;;491207;240;1024;-71
2021/01/15 11:07:29;;;;;;;;;;;22.10;22.70;;;;;;491027;240;1033;-72
2021/01/15 11:09:31;;;;;;;;;;;22.10;22.70;;;;;;491038;240;1145;-72
2021/01/15 11:11:31;;;;;;;;;;;22.10;22.60;;;;;;491037;240;1413;-72
2021/01/15 11:13:32;;;;;;;;;;;22.10;22.70;;;;;;491233;240;996;-72
2021/01/15 11:18:24;;;;;;;;;;;22.10;22.70;;;;;;491433;242;2176;-72
2021/01/15 11:20:25;;;;;;;;;;;22.10;22.70;;;;;;491048;240;2129;-71
2021/01/15 11:22:27;;;;;;;;;;;22.10;22.80;;;;;;491064;240;1188;-72
2021/01/15 11:24:28;;;;;;;;;;;22.10;22.80;;;;;;491426;240;1188;-71
2021/01/15 11:26:30;;;;;;;;;;;22.10;22.80;;;;;;491016;240;1116;-72
2021/01/15 11:28:31;;;;;;;;;;;22.10;22.80;;;;;;491106;240;1330;-72
2021/01/15 11:30:32;;;;;;;;;;;22.10;22.80;;;;;;491051;240;1120;-71
2021/01/15 11:32:33;;;;;;;;;;;22.10;22.80;;;;;;490985;240;1021;-71
2021/01/15 11:34:34;;;;;;;;;;;22.20;22.80;;;;;;491194;240;1022;-72
2021/01/15 11:36:36;;;;;;;;;;;22.10;22.80;;;;;;490971;240;1146;-72
2021/01/15 11:38:37;;;;;;;;;;;22.20;22.80;;;;;;491085;240;1129;-71
2021/01/15 11:40:38;;;;;;;;;;;22.10;22.80;;;;;;490961;240;2202;-71
2021/01/15 11:42:39;;;;;;;;;;;22.20;22.80;;;;;;491002;240;1021;-70
2021/01/15 11:44:41;;;;;;;;;;;22.10;22.80;;;;;;491287;240;1021;-72
2021/01/15 11:46:42;;;;;;;;;;;22.10;22.90;;;;;;491191;240;1183;-72
2021/01/15 11:48:43;;;;;;;;;;;22.10;22.90;;;;;;491152;240;973;-71
2021/01/15 11:50:45;;;;;;;;;;;22.10;22.80;;;;;;491137;240;1142;-72
2021/01/15 11:52:46;;;;;;;;;;;22.10;22.80;;;;;;491301;240;1142;-72
2021/01/15 11:54:48;;;;;;;;;;;22.20;22.80;;;;;;491165;240;1008;-71
2021/01/15 11:56:49;;;;;;;;;;;22.20;22.80;;;;;;491032;240;1021;-72
2021/01/15 11:58:50;;;;;;;;;;;22.20;22.80;;;;;;491105;240;1076;-72
2021/01/15 12:00:51;;;;;;;;;;;22.20;22.80;;;;;;491025;240;2196;-72
2021/01/15 12:02:52;;;;;;;;;;;22.20;22.80;;;;;;490935;240;1013;-73
2021/01/15 12:04:54;;;;;;;;;;;22.20;22.80;;;;;;490885;240;1076;-72